Time;durP1;ratioP1;P1;durP2;ratioP2;P2;SDS_P1;SDS_P2;PMS_P1;PMS_P2;Temp;Humidity;BMP_temperature;BMP_pressure;BME280_temperature;BME280_humidity;BME280_pressure;Samples;Min_cycle;Max_cycle;Signal;HPM_P1;HPM_P2
2023/10/04 00:01:01;;;;;;;14.50;3.33;;;12.70;99.90;;;;;;5100610;28;20147;-43
2023/10/04 00:03:27;;;;;;;10.48;2.83;;;12.80;99.90;;;;;;5097776;28;20050;-45
2023/10/04 00:05:54;;;;;;;12.02;3.10;;;12.70;99.90;;;;;;5099749;28;20482;-45
2023/10/04 00:08:20;;;;;;;11.88;3.63;;;12.80;99.90;;;;;;5101636;28;20119;-43
2023/10/04 00:10:46;;;;;;;9.38;2.88;;;12.80;99.90;;;;;;5100683;28;20541;-45
2023/10/04 00:13:14;;;;;;;10.68;2.70;;;12.80;99.90;;;;;;5082777;28;20458;-44
2023/10/04 00:15:40;;;;;;;10.48;2.28;;;12.80;99.90;;;;;;5089733;28;20051;-45
2023/10/04 00:18:06;;;;;;;17.45;3.25;;;12.80;99.90;;;;;;5138280;27;20090;-45
2023/10/04 00:20:33;;;;;;;15.40;2.92;;;12.80;99.90;;;;;;5103655;28;20047;-44
2023/10/04 00:23:04;;;;;;;15.02;3.65;;;12.80;99.90;;;;;;5104342;28;20265;-44
2023/10/04 00:25:30;;;;;;;11.55;2.40;;;12.80;99.90;;;;;;5087135;28;20590;-43
2023/10/04 00:27:56;;;;;;;15.95;3.72;;;12.80;99.90;;;;;;5103349;28;20100;-44
2023/10/04 00:30:23;;;;;;;9.18;2.50;;;12.80;99.90;;;;;;5103262;28;20035;-44
2023/10/04 00:32:49;;;;;;;13.30;2.90;;;12.80;99.90;;;;;;5102286;28;20094;-45
2023/10/04 00:35:17;;;;;;;15.63;3.13;;;12.90;99.90;;;;;;5136736;27;20142;-44
2023/10/04 00:37:46;;;;;;;13.63;3.42;;;12.90;99.90;;;;;;5103775;28;20227;-44
2023/10/04 00:40:15;;;;;;;14.38;3.08;;;12.90;99.90;;;;;;5102978;28;20047;-43
2023/10/04 00:42:41;;;;;;;14.57;3.17;;;12.90;99.90;;;;;;5100320;28;20051;-43
2023/10/04 00:45:13;;;;;;;11.38;2.63;;;12.90;99.90;;;;;;5096751;28;20205;-43
2023/10/04 00:47:47;;;;;;;11.43;2.70;;;12.80;99.90;;;;;;5102451;28;20044;-45
2023/10/04 00:50:17;;;;;;;14.43;2.85;;;12.80;99.90;;;;;;5103370;27;20089;-44
2023/10/04 00:52:47;;;;;;;11.32;2.80;;;12.70;99.90;;;;;;5101409;28;20050;-44
2023/10/04 00:55:16;;;;;;;14.35;3.60;;;12.70;99.90;;;;;;5084926;28;20251;-44
2023/10/04 00:57:43;;;;;;;12.45;3.10;;;12.70;99.90;;;;;;5102878;28;20063;-44
2023/10/04 01:00:10;;;;;;;14.52;2.78;;;12.70;99.90;;;;;;5102569;28;20482;-46
2023/10/04 01:02:37;;;;;;;12.40;3.00;;;12.70;99.90;;;;;;5097885;28;20052;-46
2023/10/04 01:05:04;;;;;;;11.48;2.80;;;12.60;99.90;;;;;;5103020;28;20043;-45
2023/10/04 01:07:31;;;;;;;14.93;2.38;;;12.60;99.90;;;;;;5103074;28;20043;-45
2023/10/04 01:09:56;;;;;;;10.00;2.63;;;12.60;99.90;;;;;;5101262;28;20135;-47
2023/10/04 01:12:23;;;;;;;13.98;3.03;;;12.60;99.90;;;;;;5102267;28;20678;-46
2023/10/04 01:14:49;;;;;;;14.45;4.53;;;12.60;99.90;;;;;;5101324;28;20052;-44
2023/10/04 01:17:17;;;;;;;12.35;2.90;;;12.60;99.90;;;;;;5089420;28;20119;-44
2023/10/04 01:19:43;;;;;;;20.50;3.83;;;12.50;99.90;;;;;;5083938;28;20294;-44
2023/10/04 01:22:09;;;;;;;14.48;3.53;;;12.60;99.90;;;;;;5102247;28;20521;-45
2023/10/04 01:24:38;;;;;;;13.85;2.58;;;12.60;99.90;;;;;;5100575;28;20043;-45
2023/10/04 01:27:09;;;;;;;16.13;3.35;;;12.70;99.90;;;;;;5100979;28;20058;-46
2023/10/04 01:29:38;;;;;;;12.95;3.53;;;12.70;99.90;;;;;;5100306;28;20082;-44
2023/10/04 01:32:05;;;;;;;12.85;3.42;;;12.70;99.90;;;;;;5100371;28;20385;-45
2023/10/04 01:34:31;;;;;;;20.75;3.95;;;12.80;99.90;;;;;;5101022;28;20089;-44
2023/10/04 01:36:56;;;;;;;14.85;2.97;;;12.80;99.90;;;;;;5100955;28;20040;-45
2023/10/04 01:39:25;;;;;;;12.10;3.30;;;12.80;99.90;;;;;;5100174;28;20375;-46
2023/10/04 01:41:52;;;;;;;15.07;3.30;;;12.80;99.90;;;;;;5101871;28;20404;-45
2023/10/04 01:44:17;;;;;;;12.73;3.40;;;12.80;99.90;;;;;;5086325;28;20055;-44
2023/10/04 01:46:43;;;;;;;11.52;2.90;;;12.80;99.90;;;;;;5102408;28;20043;-46
2023/10/04 01:49:09;;;;;;;14.60;3.35;;;12.80;99.90;;;;;;5100988;28;20151;-44
2023/10/04 01:51:34;;;;;;;14.70;3.92;;;12.80;99.90;;;;;;5099894;28;20497;-44
2023/10/04 01:54:06;;;;;;;11.60;2.92;;;12.80;99.90;;;;;;5100313;28;20035;-46
2023/10/04 01:56:32;;;;;;;17.13;2.78;;;12.70;99.90;;;;;;5100228;28;20044;-45
2023/10/04 01:58:57;;;;;;;11.65;3.10;;;12.70;99.90;;;;;;5101270;28;20064;-44
2023/10/04 02:01:23;;;;;;;10.23;2.60;;;12.70;99.90;;;;;;5100943;27;20418;-47
2023/10/04 02:03:49;;;;;;;9.60;2.55;;;12.60;99.90;;;;;;5098431;28;20049;-46
2023/10/04 02:06:15;;;;;;;14.50;3.40;;;12.60;99.90;;;;;;5099716;28;20046;-47
2023/10/04 02:08:43;;;;;;;14.18;3.50;;;12.50;99.90;;;;;;5099686;28;20039;-45
2023/10/04 02:11:12;;;;;;;15.73;3.22;;;12.60;99.90;;;;;;5099195;28;20479;-45
2023/10/04 02:13:40;;;;;;;10.93;3.75;;;12.50;99.90;;;;;;5100068;28;20110;-46
2023/10/04 02:16:05;;;;;;;14.85;3.90;;;12.50;99.90;;;;;;5101246;28;20044;-44
2023/10/04 02:18:33;;;;;;;11.65;3.10;;;12.60;99.90;;;;;;5101263;28;20108;-45
2023/10/04 02:20:59;;;;;;;9.15;2.95;;;12.50;99.90;;;;;;5100317;28;20115;-45
2023/10/04 02:23:25;;;;;;;11.85;3.22;;;12.50;99.90;;;;;;5099965;28;20456;-43
2023/10/04 02:25:52;;;;;;;14.35;3.03;;;12.50;99.90;;;;;;5099707;28;20096;-45
2023/10/04 02:28:23;;;;;;;15.63;3.70;;;12.50;99.90;;;;;;5101393;28;20123;-43
2023/10/04 02:30:49;;;;;;;9.63;3.20;;;12.50;99.90;;;;;;5100411;28;20035;-44
2023/10/04 02:33:15;;;;;;;12.00;3.78;;;12.50;99.90;;;;;;5099310;28;20116;-44
2023/10/04 02:35:44;;;;;;;8.90;2.72;;;12.40;99.90;;;;;;5101311;28;20039;-44
2023/10/04 02:38:32;;;;;;;8.15;2.97;;;12.40;99.90;;;;;;5100078;28;20105;-46
2023/10/04 02:40:59;;;;;;;13.43;3.38;;;12.40;99.90;;;;;;5099323;28;20035;-45
2023/10/04 02:43:26;;;;;;;11.10;3.67;;;12.40;99.90;;;;;;5091784;28;20048;-45
2023/10/04 02:45:52;;;;;;;17.05;4.00;;;12.40;99.90;;;;;;5092201;28;20047;-46
2023/10/04 02:48:23;;;;;;;12.32;3.00;;;12.30;99.90;;;;;;5098770;28;20479;-45
2023/10/04 02:50:49;;;;;;;14.80;3.25;;;12.40;99.90;;;;;;5081321;28;20050;-44
2023/10/04 02:53:20;;;;;;;14.85;3.33;;;12.30;99.90;;;;;;5120961;27;20046;-44
2023/10/04 02:55:47;;;;;;;15.38;3.35;;;12.30;99.90;;;;;;5097714;28;20039;-46
2023/10/04 02:58:13;;;;;;;11.93;3.50;;;12.30;99.90;;;;;;5099531;28;20059;-45
2023/10/04 03:00:44;;;;;;;11.18;3.25;;;12.30;99.90;;;;;;5097285;28;20498;-45
2023/10/04 03:03:12;;;;;;;13.75;3.08;;;12.30;99.90;;;;;;5096608;28;20483;-45
2023/10/04 03:05:40;;;;;;;15.10;2.97;;;12.20;99.90;;;;;;5099611;27;20111;-44
2023/10/04 03:08:07;;;;;;;12.13;3.00;;;12.20;99.90;;;;;;5099665;28;20036;-45
2023/10/04 03:10:37;;;;;;;10.70;2.53;;;12.20;99.90;;;;;;5099147;28;20047;-44
2023/10/04 03:13:11;;;;;;;11.02;3.28;;;12.20;99.90;;;;;;5100090;28;20514;-45
2023/10/04 03:15:38;;;;;;;11.30;3.05;;;12.20;99.90;;;;;;5084626;28;20780;-45
2023/10/04 03:18:13;;;;;;;10.48;3.38;;;12.10;99.90;;;;;;5132884;27;20515;-44
2023/10/04 03:21:30;;;;;;;11.75;2.85;;;12.10;99.90;;;;;;5097385;28;20039;-45
2023/10/04 03:23:33;;;;;;;12.95;3.20;;;12.10;99.90;;;;;;5079600;28;20145;-47
2023/10/04 03:26:00;;;;;;;15.95;3.38;;;12.00;99.90;;;;;;5097878;28;20472;-47
2023/10/04 03:28:26;;;;;;;13.48;3.42;;;12.00;99.90;;;;;;5100053;28;20039;-47
2023/10/04 03:30:53;;;;;;;10.35;3.50;;;12.00;99.90;;;;;;5097650;28;20408;-45
2023/10/04 03:33:20;;;;;;;11.25;2.90;;;12.00;99.90;;;;;;5099465;28;20047;-44
2023/10/04 03:35:47;;;;;;;12.40;3.30;;;11.90;99.90;;;;;;5098149;28;20047;-44
2023/10/04 03:38:13;;;;;;;10.80;3.33;;;11.90;99.90;;;;;;5098431;28;20415;-47
2023/10/04 03:40:39;;;;;;;12.18;3.25;;;11.90;99.90;;;;;;5099131;28;20514;-44
2023/10/04 03:43:07;;;;;;;12.45;3.30;;;11.80;99.90;;;;;;5109524;27;20054;-46
2023/10/04 03:45:39;;;;;;;11.68;2.95;;;11.80;99.90;;;;;;5091494;28;20469;-45
2023/10/04 03:48:14;;;;;;;11.32;3.53;;;11.90;99.90;;;;;;5099140;27;20134;-48
2023/10/04 03:50:40;;;;;;;14.32;3.22;;;11.80;99.90;;;;;;5097183;28;20095;-45
2023/10/04 03:53:07;;;;;;;17.15;3.03;;;11.80;99.90;;;;;;5099255;28;20062;-46
2023/10/04 03:55:33;;;;;;;9.30;3.38;;;11.80;99.90;;;;;;5097647;28;20047;-43
2023/10/04 03:57:59;;;;;;;13.93;4.20;;;11.80;99.90;;;;;;5099098;28;20060;-44
2023/10/04 04:00:25;;;;;;;13.48;3.65;;;11.80;99.90;;;;;;5098269;28;20047;-44
2023/10/04 04:02:51;;;;;;;14.60;3.63;;;11.80;99.90;;;;;;5094086;28;20492;-44
2023/10/04 04:05:21;;;;;;;14.27;3.58;;;11.90;99.90;;;;;;5099305;28;20229;-44
2023/10/04 04:07:48;;;;;;;20.00;4.18;;;11.90;99.90;;;;;;5097824;28;20451;-44
2023/10/04 04:10:14;;;;;;;16.73;3.40;;;11.90;99.90;;;;;;5098753;28;20104;-44
2023/10/04 04:12:41;;;;;;;20.05;3.95;;;12.00;99.90;;;;;;5098799;28;20548;-45
2023/10/04 04:15:08;;;;;;;9.35;2.97;;;12.00;99.90;;;;;;5099120;28;20054;-45
2023/10/04 04:17:35;;;;;;;12.75;3.50;;;12.00;99.90;;;;;;5080621;28;20481;-44
2023/10/04 04:20:07;;;;;;;9.73;3.08;;;12.00;99.90;;;;;;5098430;28;20410;-43
2023/10/04 04:22:33;;;;;;;10.68;3.20;;;12.00;99.90;;;;;;5098204;28;20044;-45
2023/10/04 04:25:00;;;;;;;14.75;3.72;;;12.00;99.90;;;;;;5098551;28;20039;-44
2023/10/04 04:27:27;;;;;;;12.45;3.75;;;12.00;99.90;;;;;;5098354;28;20039;-44
2023/10/04 04:29:53;;;;;;;13.57;2.92;;;12.00;99.90;;;;;;5098461;28;20047;-43
2023/10/04 04:32:27;;;;;;;14.88;3.13;;;12.00;99.90;;;;;;5098878;28;20064;-44
2023/10/04 04:34:56;;;;;;;13.65;3.10;;;12.00;99.90;;;;;;5099167;28;20478;-45
2023/10/04 04:37:29;;;;;;;15.40;3.72;;;12.00;99.90;;;;;;5097283;28;20493;-45
2023/10/04 04:39:56;;;;;;;12.43;3.50;;;12.00;99.90;;;;;;5079384;28;20490;-44
2023/10/04 04:42:35;;;;;;;12.07;3.30;;;12.00;99.90;;;;;;5098229;28;20200;-45
2023/10/04 04:45:02;;;;;;;14.48;4.53;;;12.00;99.90;;;;;;5084855;28;20064;-44
2023/10/04 04:47:28;;;;;;;11.00;3.25;;;12.00;99.90;;;;;;5098428;28;20040;-44
2023/10/04 04:49:59;;;;;;;13.25;4.20;;;12.00;99.90;;;;;;5098256;28;20042;-43
2023/10/04 04:52:25;;;;;;;16.75;3.88;;;12.00;99.90;;;;;;5080264;28;20475;-44
2023/10/04 04:54:50;;;;;;;13.60;3.78;;;12.00;99.90;;;;;;5097845;28;20069;-49
2023/10/04 04:57:16;;;;;;;20.00;5.00;;;12.00;99.90;;;;;;5098688;28;20101;-44
2023/10/04 04:59:42;;;;;;;19.30;3.78;;;12.00;99.90;;;;;;5098610;28;20112;-44
2023/10/04 05:02:08;;;;;;;12.00;3.75;;;12.00;99.90;;;;;;5102008;28;20457;-44
2023/10/04 05:04:34;;;;;;;11.25;3.75;;;12.00;99.90;;;;;;5100522;28;20047;-45
2023/10/04 05:06:59;;;;;;;13.57;3.80;;;12.10;99.90;;;;;;5101693;28;20044;-46
2023/10/04 05:09:25;;;;;;;14.40;4.00;;;12.10;99.90;;;;;;5083062;28;20569;-45
2023/10/04 05:11:51;;;;;;;13.93;3.30;;;12.10;99.90;;;;;;5101668;28;20544;-45
2023/10/04 05:14:18;;;;;;;14.65;3.92;;;12.20;99.90;;;;;;5134656;27;20054;-44
2023/10/04 05:16:44;;;;;;;12.25;4.13;;;12.30;99.90;;;;;;5102248;28;20481;-44
2023/10/04 05:19:11;;;;;;;14.18;4.15;;;12.30;99.90;;;;;;5082531;28;20711;-44
2023/10/04 05:21:37;;;;;;;14.98;4.35;;;12.40;99.90;;;;;;5101071;28;20361;-45
2023/10/04 05:24:05;;;;;;;20.17;4.80;;;12.40;99.90;;;;;;5102064;27;20047;-44
2023/10/04 05:26:32;;;;;;;16.02;5.05;;;12.40;99.90;;;;;;5101916;28;20051;-45
2023/10/04 05:29:00;;;;;;;16.15;4.50;;;12.40;99.90;;;;;;5101434;28;20446;-46
2023/10/04 05:31:25;;;;;;;16.48;4.88;;;12.50;99.90;;;;;;5101642;28;20124;-44
2023/10/04 05:33:51;;;;;;;14.35;4.20;;;12.50;99.90;;;;;;5100622;28;20051;-45
2023/10/04 05:36:17;;;;;;;13.73;4.10;;;12.50;99.90;;;;;;5101297;28;20124;-48
2023/10/04 05:38:43;;;;;;;14.60;4.07;;;12.50;99.90;;;;;;5099448;28;20067;-46
2023/10/04 05:41:09;;;;;;;15.18;5.30;;;12.60;99.90;;;;;;5100940;28;20581;-45
2023/10/04 05:43:35;;;;;;;17.30;5.18;;;12.60;99.90;;;;;;5092107;28;20079;-44
2023/10/04 05:46:00;;;;;;;12.60;4.45;;;12.70;99.90;;;;;;5095669;28;20557;-45
2023/10/04 05:48:26;;;;;;;18.15;5.75;;;12.80;99.90;;;;;;5099575;28;20563;-45
2023/10/04 05:50:54;;;;;;;16.30;5.63;;;12.80;99.90;;;;;;5098433;28;20075;-44
2023/10/04 05:53:21;;;;;;;22.48;5.93;;;12.80;99.90;;;;;;5101174;28;20572;-45
2023/10/04 05:55:48;;;;;;;21.42;5.25;;;12.80;99.90;;;;;;5100948;28;20047;-44
2023/10/04 05:58:15;;;;;;;15.48;5.55;;;12.90;99.90;;;;;;5099202;28;20430;-44
2023/10/04 06:00:40;;;;;;;18.77;5.43;;;12.90;99.90;;;;;;5132895;27;20098;-44
2023/10/04 06:03:08;;;;;;;15.75;5.70;;;12.90;99.90;;;;;;5097220;28;20123;-44
2023/10/04 06:05:35;;;;;;;15.23;5.43;;;12.90;99.90;;;;;;5100813;28;20096;-44
2023/10/04 06:08:06;;;;;;;18.42;5.53;;;13.00;99.90;;;;;;5100697;28;20051;-45
2023/10/04 06:10:32;;;;;;;15.00;5.50;;;13.00;99.90;;;;;;5098379;28;20072;-44
2023/10/04 06:12:59;;;;;;;11.80;4.82;;;13.10;99.90;;;;;;5099578;28;20039;-44
2023/10/04 06:15:24;;;;;;;19.27;5.05;;;13.10;99.90;;;;;;5100372;28;20828;-44
2023/10/04 06:17:53;;;;;;;16.88;5.32;;;13.10;99.90;;;;;;5100533;28;20048;-43
2023/10/04 06:20:23;;;;;;;14.88;6.10;;;13.10;99.90;;;;;;5115614;27;20036;-43
2023/10/04 06:22:54;;;;;;;12.90;5.03;;;13.10;99.90;;;;;;5100989;28;20047;-44
2023/10/04 06:25:21;;;;;;;16.95;6.38;;;13.10;99.90;;;;;;5100713;28;20054;-45
2023/10/04 06:27:48;;;;;;;16.05;5.80;;;13.20;99.90;;;;;;5099205;28;20383;-45
2023/10/04 06:30:17;;;;;;;16.02;5.85;;;13.20;99.90;;;;;;5098346;28;20050;-45
2023/10/04 06:32:43;;;;;;;15.90;6.07;;;13.20;99.90;;;;;;5099105;28;20044;-44
2023/10/04 06:35:09;;;;;;;13.40;5.43;;;13.30;99.90;;;;;;5098825;28;20047;-45
2023/10/04 06:37:36;;;;;;;17.92;6.15;;;13.30;99.90;;;;;;5099620;28;20127;-45
2023/10/04 06:40:02;;;;;;;17.10;5.88;;;13.30;99.90;;;;;;5100505;28;20491;-45
2023/10/04 06:42:28;;;;;;;17.27;5.82;;;13.40;99.90;;;;;;5099712;28;20240;-44
2023/10/04 06:44:54;;;;;;;18.10;7.00;;;13.40;99.90;;;;;;5096913;28;20156;-44
2023/10/04 06:47:20;;;;;;;22.50;5.85;;;13.40;99.90;;;;;;5100398;28;20436;-45
2023/10/04 06:49:46;;;;;;;16.98;5.28;;;13.40;99.90;;;;;;5098270;28;20403;-48
2023/10/04 06:52:12;;;;;;;16.38;6.30;;;13.50;99.90;;;;;;5097883;28;20398;-45
2023/10/04 06:54:37;;;;;;;14.05;5.10;;;13.70;99.90;;;;;;5099996;28;20043;-45
2023/10/04 06:57:03;;;;;;;18.60;5.47;;;13.90;99.90;;;;;;5098038;28;20043;-45
2023/10/04 06:59:29;;;;;;;14.88;4.85;;;14.10;99.90;;;;;;5099288;28;20078;-44
2023/10/04 07:01:54;;;;;;;16.75;5.72;;;14.30;99.90;;;;;;5094506;28;20047;-44
2023/10/04 07:04:20;;;;;;;17.50;5.72;;;14.50;99.90;;;;;;5098566;28;20080;-45
2023/10/04 07:06:45;;;;;;;17.88;5.95;;;14.60;99.90;;;;;;5099606;28;20039;-44
2023/10/04 07:09:11;;;;;;;18.98;5.85;;;14.60;99.90;;;;;;5097287;28;20036;-44
2023/10/04 07:11:37;;;;;;;18.05;5.30;;;14.50;99.90;;;;;;5098670;28;20109;-46
2023/10/04 07:14:04;;;;;;;16.88;5.97;;;14.40;99.90;;;;;;5080821;28;20043;-46
2023/10/04 07:16:30;;;;;;;22.02;6.80;;;14.40;99.90;;;;;;5099372;28;20052;-45
2023/10/04 07:18:58;;;;;;;19.83;5.63;;;14.30;99.90;;;;;;5097045;28;20168;-44
2023/10/04 07:21:24;;;;;;;19.20;6.22;;;14.30;99.90;;;;;;5097845;28;20557;-46
2023/10/04 07:23:49;;;;;;;17.88;5.38;;;14.20;99.90;;;;;;5099119;28;20095;-48
2023/10/04 07:26:15;;;;;;;19.20;5.63;;;14.20;99.90;;;;;;5097976;28;20433;-46
2023/10/04 07:28:41;;;;;;;14.90;5.43;;;14.20;99.90;;;;;;5098843;28;20372;-44
2023/10/04 07:31:07;;;;;;;16.75;5.18;;;14.30;99.90;;;;;;5096400;28;20084;-45
2023/10/04 07:33:33;;;;;;;16.10;5.70;;;14.40;99.90;;;;;;5099604;28;20048;-46
2023/10/04 07:35:59;;;;;;;12.80;4.80;;;14.70;99.90;;;;;;5099241;28;20345;-47
2023/10/04 07:38:25;;;;;;;16.35;6.60;;;15.00;99.90;;;;;;5114170;27;20128;-46
2023/10/04 07:40:51;;;;;;;24.20;6.13;;;15.10;99.90;;;;;;5097258;28;20047;-44
2023/10/04 07:43:16;;;;;;;13.73;5.35;;;15.20;99.90;;;;;;5095223;28;20051;-46
2023/10/04 07:45:42;;;;;;;16.25;5.28;;;15.10;99.90;;;;;;5099260;28;20031;-44
2023/10/04 07:48:10;;;;;;;17.08;5.03;;;15.10;99.90;;;;;;5099172;28;20031;-44
2023/10/04 07:50:36;;;;;;;15.23;5.05;;;15.00;99.90;;;;;;5096616;28;20740;-45
2023/10/04 07:53:06;;;;;;;12.98;5.35;;;15.10;99.90;;;;;;5099151;28;20049;-44
2023/10/04 07:55:33;;;;;;;18.90;5.45;;;15.40;99.90;;;;;;5097545;28;20493;-45
2023/10/04 07:58:03;;;;;;;17.98;5.82;;;15.60;99.90;;;;;;5080514;28;20056;-44
2023/10/04 08:00:29;;;;;;;15.30;5.32;;;15.80;99.90;;;;;;5096808;28;20079;-45
2023/10/04 08:02:57;;;;;;;15.13;6.30;;;16.00;99.90;;;;;;5094163;28;20043;-45
2023/10/04 08:05:25;;;;;;;12.85;5.40;;;16.10;99.90;;;;;;5098935;28;20075;-45
2023/10/04 08:07:55;;;;;;;14.68;5.20;;;16.20;99.90;;;;;;5099211;28;20050;-45
2023/10/04 08:10:23;;;;;;;15.70;5.68;;;16.30;99.90;;;;;;5097921;28;20040;-44
2023/10/04 08:12:53;;;;;;;12.13;5.10;;;16.40;99.90;;;;;;5097485;28;20040;-48
2023/10/04 08:15:20;;;;;;;17.50;5.70;;;16.50;99.90;;;;;;5080254;28;20040;-46
2023/10/04 08:17:49;;;;;;;17.13;5.18;;;16.60;99.90;;;;;;5098991;28;20436;-47
2023/10/04 08:20:15;;;;;;;18.38;6.15;;;16.60;99.90;;;;;;5097248;28;20051;-48
2023/10/04 08:22:42;;;;;;;10.85;4.95;;;16.60;99.90;;;;;;5096631;28;20565;-44
2023/10/04 08:25:21;;;;;;;12.57;5.82;;;16.60;99.90;;;;;;5079555;28;20051;-44
2023/10/04 08:27:47;;;;;;;15.82;5.38;;;16.60;99.90;;;;;;5097469;28;20047;-46
2023/10/04 08:30:15;;;;;;;15.88;5.93;;;16.60;99.90;;;;;;5096165;28;20046;-45
2023/10/04 08:32:51;;;;;;;19.35;5.85;;;16.50;99.90;;;;;;5097508;28;20376;-45
2023/10/04 08:35:34;;;;;;;18.27;6.35;;;16.40;99.90;;;;;;5097704;28;20328;-45
2023/10/04 08:38:05;;;;;;;17.10;5.38;;;16.40;99.90;;;;;;5101535;27;20043;-46
2023/10/04 08:40:34;;;;;;;18.77;5.50;;;16.40;99.90;;;;;;5105090;27;20135;-45
2023/10/04 08:43:00;;;;;;;14.02;5.70;;;16.40;99.90;;;;;;5108232;27;20036;-45
2023/10/04 08:45:29;;;;;;;18.23;5.82;;;16.40;99.90;;;;;;5107204;27;20116;-45
2023/10/04 08:47:57;;;;;;;16.13;5.05;;;16.40;99.90;;;;;;5103286;27;20417;-45
2023/10/04 08:50:40;;;;;;;16.27;5.53;;;16.50;99.90;;;;;;5093464;28;20702;-47
2023/10/04 08:53:32;;;;;;;14.18;5.82;;;16.60;99.90;;;;;;5101527;28;20039;-46
2023/10/04 08:56:09;;;;;;;14.68;5.70;;;16.70;99.90;;;;;;5083770;28;20275;-45
2023/10/04 08:58:35;;;;;;;12.25;5.38;;;16.70;99.90;;;;;;5101545;28;20064;-47
2023/10/04 09:01:04;;;;;;;15.98;5.80;;;16.70;99.90;;;;;;5101283;27;20051;-47
2023/10/04 09:03:31;;;;;;;12.02;5.93;;;16.70;99.90;;;;;;5098821;28;20460;-44
2023/10/04 09:05:57;;;;;;;15.80;5.72;;;16.70;99.90;;;;;;5101940;28;20035;-44
2023/10/04 09:08:25;;;;;;;14.65;5.63;;;16.80;99.90;;;;;;5101085;28;20126;-46
2023/10/04 09:10:53;;;;;;;15.00;5.97;;;16.80;99.90;;;;;;5099787;28;20051;-45
2023/10/04 09:13:19;;;;;;;17.63;5.53;;;16.80;99.90;;;;;;5102398;28;20647;-45
2023/10/04 09:15:44;;;;;;;17.23;6.30;;;16.90;99.90;;;;;;5102080;28;20043;-44
2023/10/04 09:18:10;;;;;;;12.80;5.45;;;17.00;99.90;;;;;;5101636;28;20044;-46
2023/10/04 09:20:36;;;;;;;13.55;6.43;;;17.10;99.90;;;;;;5099736;28;20066;-44
2023/10/04 09:23:16;;;;;;;14.10;5.60;;;17.20;99.90;;;;;;5101958;28;20039;-45
2023/10/04 09:25:41;;;;;;;15.18;6.22;;;17.30;99.90;;;;;;5099497;28;20039;-47
2023/10/04 09:28:11;;;;;;;16.05;5.32;;;17.40;99.90;;;;;;5101324;28;20104;-44
2023/10/04 09:30:36;;;;;;;14.38;4.97;;;17.50;99.90;;;;;;5101428;28;20100;-45
2023/10/04 09:33:20;;;;;;;17.83;5.60;;;17.50;99.90;;;;;;5099913;28;20327;-45
2023/10/04 09:35:46;;;;;;;12.18;4.63;;;17.50;99.90;;;;;;5101104;28;20079;-46
2023/10/04 09:38:18;;;;;;;16.13;5.68;;;17.50;99.90;;;;;;5100846;28;20463;-44
2023/10/04 09:41:02;;;;;;;12.43;6.82;;;17.50;99.90;;;;;;5100478;28;20508;-44
2023/10/04 09:43:36;;;;;;;15.73;6.40;;;17.50;99.90;;;;;;5093054;28;20749;-48
2023/10/04 09:46:07;;;;;;;18.00;5.93;;;17.50;99.90;;;;;;5096845;28;20051;-48
2023/10/04 09:48:34;;;;;;;12.90;6.50;;;17.50;99.90;;;;;;5100427;28;20363;-47
2023/10/04 09:51:01;;;;;;;13.20;4.97;;;17.60;99.90;;;;;;5099339;28;20032;-44
2023/10/04 09:53:28;;;;;;;12.90;5.63;;;17.60;99.90;;;;;;5101694;28;20495;-44
2023/10/04 09:55:58;;;;;;;13.48;6.15;;;17.50;99.90;;;;;;5099252;28;20149;-45
2023/10/04 09:58:26;;;;;;;11.93;6.00;;;17.70;99.90;;;;;;5100981;28;20166;-46
2023/10/04 10:00:54;;;;;;;15.25;5.63;;;17.80;99.90;;;;;;5098822;28;20047;-44
2023/10/04 10:03:28;;;;;;;13.25;5.00;;;17.80;99.90;;;;;;5097806;28;20073;-45
2023/10/04 10:05:56;;;;;;;16.27;5.35;;;17.90;99.90;;;;;;5099485;28;20073;-47
2023/10/04 10:08:25;;;;;;;14.80;6.00;;;17.90;99.90;;;;;;5099382;28;20506;-46
2023/10/04 10:10:51;;;;;;;12.55;5.85;;;17.90;99.90;;;;;;5099954;28;20490;-44
2023/10/04 10:13:19;;;;;;;16.00;5.75;;;18.00;99.90;;;;;;5099133;28;20047;-44
2023/10/04 10:15:46;;;;;;;13.57;5.32;;;18.00;99.90;;;;;;5099059;28;20051;-46
2023/10/04 10:18:12;;;;;;;15.15;5.95;;;18.00;99.90;;;;;;5093129;28;20692;-44
2023/10/04 10:20:39;;;;;;;14.20;6.07;;;18.00;99.90;;;;;;5098915;28;20113;-44
2023/10/04 10:23:10;;;;;;;13.02;6.05;;;17.90;99.90;;;;;;5098785;28;20425;-47
2023/10/04 10:25:38;;;;;;;13.50;5.82;;;18.10;99.90;;;;;;5099618;28;20092;-45
2023/10/04 10:28:09;;;;;;;12.65;6.05;;;18.20;99.90;;;;;;5100712;28;20071;-46
2023/10/04 10:30:36;;;;;;;14.38;5.95;;;18.10;99.90;;;;;;5099372;28;20039;-44
2023/10/04 10:33:05;;;;;;;16.55;6.40;;;18.10;99.90;;;;;;5082554;28;20039;-45
2023/10/04 10:35:49;;;;;;;13.27;6.10;;;17.90;99.90;;;;;;5099946;28;20051;-47
2023/10/04 10:38:39;;;;;;;14.07;5.90;;;17.90;99.90;;;;;;5100581;27;20119;-45
2023/10/04 10:41:11;;;;;;;17.73;6.57;;;17.90;99.90;;;;;;5099372;28;20047;-44
2023/10/04 10:44:12;;;;;;;12.23;5.55;;;17.90;99.90;;;;;;5084890;28;20151;-45
2023/10/04 10:47:04;;;;;;;16.33;6.18;;;17.80;99.90;;;;;;5085907;28;20039;-46
2023/10/04 10:49:44;;;;;;;13.55;5.80;;;17.70;99.90;;;;;;5099498;28;20042;-45
2023/10/04 10:52:24;;;;;;;12.85;5.43;;;17.60;99.90;;;;;;5098398;28;20077;-44
2023/10/04 10:54:54;;;;;;;12.70;4.90;;;17.50;99.90;;;;;;5087836;28;20051;-46
2023/10/04 10:57:25;;;;;;;16.25;5.95;;;17.60;99.90;;;;;;5097849;28;20513;-46
2023/10/04 10:59:55;;;;;;;12.82;5.45;;;17.60;99.90;;;;;;5097583;28;20066;-45
2023/10/04 11:02:22;;;;;;;13.40;5.55;;;17.70;99.90;;;;;;5094617;28;20122;-45
2023/10/04 11:04:49;;;;;;;13.93;6.03;;;17.60;99.90;;;;;;5100446;28;20055;-46
2023/10/04 11:07:17;;;;;;;13.75;5.35;;;17.70;99.90;;;;;;5099922;28;20088;-45
2023/10/04 11:09:50;;;;;;;15.55;6.05;;;17.70;99.90;;;;;;5098891;28;20111;-44
2023/10/04 11:12:18;;;;;;;16.23;6.97;;;17.70;99.90;;;;;;5099836;28;20247;-44
2023/10/04 11:14:44;;;;;;;14.95;5.68;;;17.80;99.90;;;;;;5098229;28;20104;-45
2023/10/04 11:17:14;;;;;;;17.30;5.63;;;17.80;99.90;;;;;;5099763;28;20581;-45
2023/10/04 11:19:41;;;;;;;12.73;5.47;;;17.80;99.90;;;;;;5097367;28;20058;-44
2023/10/04 11:22:08;;;;;;;12.02;5.63;;;17.90;99.90;;;;;;5099563;28;20044;-46
2023/10/04 11:24:36;;;;;;;14.23;5.55;;;17.90;99.90;;;;;;5098008;28;20532;-46
2023/10/04 11:27:02;;;;;;;10.98;5.30;;;17.90;99.90;;;;;;5086449;28;20040;-44
2023/10/04 11:29:30;;;;;;;13.98;5.20;;;17.90;99.90;;;;;;5132156;27;20089;-45
2023/10/04 11:31:58;;;;;;;15.23;5.85;;;17.80;99.90;;;;;;5099781;28;20043;-46
2023/10/04 11:34:26;;;;;;;11.73;5.10;;;17.70;99.90;;;;;;5098961;28;20133;-47
2023/10/04 11:36:58;;;;;;;12.60;5.00;;;17.80;99.90;;;;;;5098820;28;20043;-44
2023/10/04 11:39:33;;;;;;;12.93;5.18;;;17.80;99.90;;;;;;5114658;27;20083;-44
2023/10/04 11:42:03;;;;;;;17.98;5.65;;;17.60;99.90;;;;;;5099200;28;20040;-44
2023/10/04 11:44:33;;;;;;;17.45;5.75;;;17.60;99.90;;;;;;5081996;28;20062;-49
2023/10/04 11:47:00;;;;;;;13.30;4.88;;;17.70;99.90;;;;;;5098620;28;20048;-46
2023/10/04 11:49:29;;;;;;;14.70;5.25;;;17.70;99.90;;;;;;5132001;27;20143;-44
2023/10/04 11:52:01;;;;;;;12.70;4.35;;;17.70;99.90;;;;;;5096573;28;20547;-48
2023/10/04 11:54:56;;;;;;;10.00;4.93;;;17.70;99.90;;;;;;5099571;28;20110;-46
2023/10/04 11:57:28;;;;;;;15.75;5.53;;;17.80;99.90;;;;;;5093699;28;20085;-46
2023/10/04 11:59:57;;;;;;;12.55;4.45;;;17.80;99.90;;;;;;5097085;28;20047;-45
2023/10/04 12:02:25;;;;;;;12.48;4.18;;;17.80;99.90;;;;;;5080779;28;20146;-46
2023/10/04 12:04:52;;;;;;;10.52;3.95;;;17.80;99.90;;;;;;5098125;28;20376;-46
2023/10/04 12:07:18;;;;;;;12.52;4.97;;;17.80;99.90;;;;;;5099414;28;20131;-46
2023/10/04 12:09:43;;;;;;;12.38;4.32;;;17.80;99.90;;;;;;5097780;28;20126;-46
2023/10/04 12:12:09;;;;;;;16.02;5.05;;;17.80;99.90;;;;;;5103303;28;20043;-45
2023/10/04 12:14:35;;;;;;;17.15;5.15;;;17.80;99.90;;;;;;5102269;28;20043;-46
2023/10/04 12:17:05;;;;;;;10.82;3.53;;;17.90;99.90;;;;;;5101510;28;20086;-44
2023/10/04 12:19:35;;;;;;;10.57;3.28;;;17.90;99.90;;;;;;5100584;28;20569;-44
2023/10/04 12:22:02;;;;;;;9.32;4.07;;;17.90;99.90;;;;;;5100883;28;20661;-45
2023/10/04 12:24:32;;;;;;;10.70;3.72;;;18.00;99.90;;;;;;5100806;28;20061;-45
2023/10/04 12:27:01;;;;;;;10.95;4.47;;;18.00;99.90;;;;;;5101966;28;20051;-45
2023/10/04 12:29:30;;;;;;;11.75;4.07;;;18.00;99.90;;;;;;5102432;28;20066;-45
2023/10/04 12:31:56;;;;;;;10.73;3.65;;;18.00;99.90;;;;;;5083984;28;20160;-44
2023/10/04 12:34:26;;;;;;;13.85;4.20;;;18.00;99.90;;;;;;5100842;28;20060;-47
2023/10/04 12:36:52;;;;;;;10.38;3.25;;;18.00;99.90;;;;;;5100897;28;20251;-44
2023/10/04 12:39:19;;;;;;;8.90;3.75;;;18.10;99.90;;;;;;5102084;28;20317;-44
2023/10/04 12:41:45;;;;;;;10.73;3.72;;;18.10;99.90;;;;;;5101835;28;20035;-48
2023/10/04 12:44:12;;;;;;;9.90;4.43;;;18.20;99.90;;;;;;5100354;28;20058;-44